Kendallville, Iowa
Current Conditions -  °F | °C
As of 11:16 AM on Sunday 21 Dec 2014 (Local Time) from KFKA Reporting Station
Haze Haze  
Wind Chill: 24°   Ceiling: 200
Heat Index: 34°   Visibility: 1.2mi
Dew Point: 34°   Wind: 15mph
Humidity: 99%   Direction: 170°S
Pressure: 29.9"   Gusts: 24mph
Location:  43.363°N, 92.1685°W
Report Text: KFKA 211716Z AUTO 17013G21KT 1 1/4SM BR OVC002 01/01 A2990 RMK AO2 T00100009
Loading
Personal Weather Stations






























Interactive Weather Map New forecast layout! Learn more

10-Day Weather Forecast

Advertisements
Track Severe Weather on mobile